createdAt,value
2017-06-23T00:00:09.391Z,0
2017-06-23T00:00:40.228Z,0
2017-06-23T00:01:40.252Z,0
2017-06-23T00:02:40.229Z,0
2017-06-23T00:03:54.873Z,0
2017-06-23T00:04:40.282Z,0
2017-06-23T00:05:54.925Z,0
2017-06-23T00:06:54.949Z,0
2017-06-23T00:07:40.354Z,0
2017-06-23T00:08:54.725Z,0
2017-06-23T00:09:40.410Z,0
2017-06-23T00:10:40.434Z,0
2017-06-23T00:11:40.459Z,0
2017-06-23T00:12:55.103Z,0
2017-06-23T00:13:40.253Z,0
2017-06-23T00:14:40.538Z,0
2017-06-23T00:15:54.873Z,0
2017-06-23T00:16:40.585Z,0
2017-06-23T00:18:09.847Z,0
2017-06-23T00:18:54.649Z,0
2017-06-23T00:19:40.668Z,0
2017-06-23T00:20:55.307Z,0
2017-06-23T00:21:40.714Z,0
2017-06-23T00:22:40.431Z,0
2017-06-23T00:23:40.764Z,0
2017-06-23T00:24:40.795Z,0
2017-06-23T00:25:40.820Z,0
2017-06-23T00:26:40.838Z,0
2017-06-23T00:27:40.866Z,0
2017-06-23T00:31:55.584Z,0
2017-06-23T00:32:40.991Z,0
2017-06-23T00:33:41.017Z,0
2017-06-23T00:34:55.661Z,0
2017-06-23T00:35:40.769Z,0
2017-06-23T00:37:55.738Z,0
2017-06-23T00:38:55.458Z,0
2017-06-23T00:39:41.177Z,0
2017-06-23T00:41:41.229Z,0
2017-06-23T00:42:40.943Z,0
2017-06-23T00:44:41.315Z,0
2017-06-23T00:45:41.019Z,0
2017-06-23T00:46:41.352Z,0
2017-06-23T00:47:41.067Z,0
2017-06-23T00:48:56.017Z,0
2017-06-23T00:49:41.429Z,0
2017-06-23T00:50:41.457Z,0
2017-06-23T00:51:56.096Z,0
2017-06-23T00:52:41.501Z,0
2017-06-23T00:53:56.145Z,0
2017-06-23T00:54:41.551Z,0
2017-06-23T00:55:40.971Z,0
2017-06-23T00:56:41.604Z,0
2017-06-23T00:57:41.324Z,0
2017-06-23T00:58:41.651Z,0
2017-06-23T00:59:41.680Z,0
2017-06-23T01:00:41.806Z,0
2017-06-23T01:01:41.730Z,0
2017-06-23T01:02:41.755Z,0
2017-06-23T01:03:41.778Z,0
2017-06-23T01:04:56.423Z,0
2017-06-23T01:05:41.831Z,0
2017-06-23T01:06:41.558Z,0
2017-06-23T01:07:41.879Z,0
2017-06-23T01:08:41.915Z,0
2017-06-23T01:10:41.959Z,0
2017-06-23T01:11:41.986Z,0
2017-06-23T01:12:42.010Z,0
2017-06-23T01:13:41.734Z,0
2017-06-23T01:14:41.759Z,0
2017-06-23T01:15:41.781Z,0
2017-06-23T01:16:42.108Z,0
2017-06-23T01:17:41.834Z,0
2017-06-23T01:18:42.157Z,0
2017-06-23T01:19:56.502Z,0
2017-06-23T01:20:56.831Z,0
2017-06-23T01:22:11.169Z,0
2017-06-23T01:23:11.195Z,0
2017-06-23T01:23:41.985Z,0
2017-06-23T01:24:42.315Z,0
2017-06-23T01:25:56.956Z,0
2017-06-23T01:26:42.363Z,0
2017-06-23T01:27:42.393Z,0
2017-06-23T01:28:57.030Z,0
2017-06-23T01:29:42.135Z,0
2017-06-23T01:30:42.464Z,0
2017-06-23T01:31:42.492Z,0
2017-06-23T01:32:42.517Z,0
2017-06-23T01:33:42.542Z,0
2017-06-23T01:34:42.566Z,0
2017-06-23T01:35:42.596Z,0
2017-06-23T01:36:42.311Z,0
2017-06-23T01:38:11.879Z,0
2017-06-23T01:38:42.671Z,0
2017-06-23T01:39:42.713Z,0
2017-06-23T01:40:57.339Z,0
2017-06-23T01:41:42.747Z,0
2017-06-23T01:42:57.387Z,0
2017-06-23T01:43:42.794Z,0
2017-06-23T01:44:42.214Z,0
2017-06-23T01:46:42.565Z,0
2017-06-23T01:50:42.970Z,0
2017-06-23T01:51:42.996Z,0
2017-06-23T01:52:43.021Z,0
2017-06-23T01:53:42.740Z,0
2017-06-23T01:54:57.687Z,0
2017-06-23T01:55:43.096Z,0
2017-06-23T01:56:43.123Z,0
2017-06-23T01:57:42.840Z,0
2017-06-23T01:58:42.872Z,0
2017-06-23T01:59:43.197Z,0
2017-06-23T02:00:43.234Z,0
2017-06-23T02:01:43.263Z,0
2017-06-23T02:02:43.350Z,0
2017-06-23T02:04:43.326Z,0
2017-06-23T02:05:43.349Z,0
2017-06-23T02:06:43.372Z,0
2017-06-23T02:07:58.014Z,0
2017-06-23T02:08:43.425Z,0
2017-06-23T02:10:12.689Z,0
2017-06-23T02:10:43.474Z,0
2017-06-23T02:11:43.498Z,0
2017-06-23T02:12:58.139Z,0
2017-06-23T02:13:43.265Z,0
2017-06-23T02:14:43.281Z,0
2017-06-23T02:15:43.597Z,0
2017-06-23T02:16:43.663Z,0
2017-06-23T02:17:43.649Z,0
2017-06-23T02:18:43.678Z,0
2017-06-23T02:19:43.702Z,0
2017-06-23T02:20:58.345Z,0
2017-06-23T02:21:58.420Z,0
2017-06-23T02:22:43.774Z,0
2017-06-23T02:23:43.795Z,0
2017-06-23T02:24:58.442Z,0
2017-06-23T02:25:58.468Z,0
2017-06-23T02:26:43.875Z,0
2017-06-23T02:27:43.898Z,0
2017-06-23T02:28:58.541Z,0
2017-06-23T02:29:43.648Z,0
2017-06-23T02:30:43.700Z,0
2017-06-23T02:31:44.002Z,0
2017-06-23T02:32:44.028Z,0
2017-06-23T02:33:44.055Z,0
2017-06-23T02:34:44.075Z,0
2017-06-23T02:35:44.098Z,0
2017-06-23T02:36:58.752Z,0
2017-06-23T02:37:44.147Z,0
2017-06-23T02:38:44.180Z,0
2017-06-23T02:39:44.205Z,0
2017-06-23T02:41:13.462Z,0
2017-06-23T02:41:58.867Z,0
2017-06-23T02:42:44.276Z,0
2017-06-23T02:43:44.311Z,0
2017-06-23T02:44:58.944Z,0
2017-06-23T02:45:44.065Z,0
2017-06-23T02:46:44.076Z,0
2017-06-23T02:47:44.401Z,0
2017-06-23T02:48:44.426Z,0
2017-06-23T02:49:44.449Z,0
2017-06-23T02:52:44.527Z,0
2017-06-23T02:53:44.558Z,0
2017-06-23T02:54:59.194Z,0
2017-06-23T02:55:44.600Z,0
2017-06-23T02:56:59.243Z,0
2017-06-23T02:58:13.887Z,0
2017-06-23T02:59:13.912Z,0
2017-06-23T02:59:59.319Z,0
2017-06-23T03:00:59.345Z,0
2017-06-23T03:01:44.458Z,0
2017-06-23T03:02:44.778Z,0
2017-06-23T03:03:44.802Z,0
2017-06-23T03:04:44.823Z,0
2017-06-23T03:05:44.852Z,0
2017-06-23T03:06:44.571Z,0
2017-06-23T03:09:44.958Z,0
2017-06-23T03:11:59.618Z,0
2017-06-23T03:12:45.028Z,0
2017-06-23T03:14:14.287Z,0
2017-06-23T03:14:45.075Z,0
2017-06-23T03:15:59.719Z,0
2017-06-23T03:16:44.824Z,5
2017-06-23T03:17:59.769Z,5
2017-06-23T03:18:45.182Z,5
2017-06-23T03:19:45.209Z,5
2017-06-23T03:20:44.923Z,5
2017-06-23T03:21:45.257Z,5
2017-06-23T03:22:59.898Z,5
2017-06-23T03:23:45.309Z,5
2017-06-23T03:24:45.327Z,5
2017-06-23T03:25:45.352Z,5
2017-06-23T03:27:14.611Z,5
2017-06-23T03:27:45.403Z,5
2017-06-23T03:28:45.433Z,5
2017-06-23T03:29:45.452Z,5
2017-06-23T03:30:45.477Z,5
2017-06-23T03:31:45.198Z,5
2017-06-23T03:32:59.841Z,5
2017-06-23T03:34:00.180Z,5
2017-06-23T03:35:00.193Z,5
2017-06-23T03:36:00.218Z,5
2017-06-23T03:36:45.631Z,5
2017-06-23T03:39:00.305Z,10
2017-06-23T03:40:00.337Z,10
2017-06-23T03:40:45.730Z,10
2017-06-23T03:41:45.822Z,10
2017-06-23T03:42:45.795Z,10
2017-06-23T03:43:45.820Z,10
2017-06-23T03:44:45.846Z,15
2017-06-23T03:46:00.471Z,15
2017-06-23T03:46:45.578Z,15
2017-06-23T03:48:00.520Z,25
2017-06-23T03:49:15.176Z,25
2017-06-23T03:50:00.571Z,25
2017-06-23T03:50:45.989Z,30
2017-06-23T03:51:46.013Z,35
2017-06-23T03:52:46.027Z,30
2017-06-23T03:54:46.092Z,30
2017-06-23T03:55:46.105Z,25
2017-06-23T03:56:46.129Z,25
2017-06-23T03:57:45.852Z,30
2017-06-23T03:58:46.181Z,25
2017-06-23T03:59:46.207Z,40
2017-06-23T04:01:00.545Z,30
2017-06-23T04:02:15.490Z,30
2017-06-23T04:02:46.278Z,35
2017-06-23T04:04:00.620Z,35
2017-06-23T04:04:46.329Z,35
2017-06-23T04:06:46.386Z,60
2017-06-23T04:07:46.405Z,75
2017-06-23T04:11:46.511Z,85
2017-06-23T04:12:46.533Z,95
2017-06-23T04:13:46.262Z,120
2017-06-23T04:14:46.583Z,170
2017-06-23T04:15:46.311Z,115
2017-06-23T04:17:15.568Z,130
2017-06-23T04:17:46.666Z,105
2017-06-23T04:18:46.684Z,115
2017-06-23T04:20:46.736Z,175
2017-06-23T04:21:46.767Z,100
2017-06-23T04:22:46.484Z,60
2017-06-23T04:23:46.812Z,65
2017-06-23T04:24:46.839Z,75
2017-06-23T04:25:46.866Z,80
2017-06-23T04:26:46.890Z,105
2017-06-23T04:27:46.918Z,75
2017-06-23T04:28:46.735Z,105
2017-06-23T04:29:46.969Z,140
2017-06-23T04:30:46.990Z,90
2017-06-23T04:31:47.020Z,100
2017-06-23T04:32:47.043Z,70
2017-06-23T04:33:47.069Z,50
2017-06-23T04:34:47.096Z,45
2017-06-23T04:36:01.742Z,50
2017-06-23T04:36:46.845Z,45
2017-06-23T04:38:01.791Z,45
2017-06-23T04:38:47.205Z,45
2017-06-23T04:39:47.223Z,50
2017-06-23T04:40:47.248Z,75
2017-06-23T04:41:47.274Z,100
2017-06-23T04:42:47.308Z,120
2017-06-23T04:43:47.326Z,140
2017-06-23T04:44:47.354Z,130
2017-06-23T04:46:01.997Z,120
2017-06-23T04:47:02.030Z,110
2017-06-23T04:47:47.430Z,95
2017-06-23T04:49:16.692Z,95
2017-06-23T04:49:47.482Z,85
2017-06-23T04:51:01.872Z,65
2017-06-23T04:52:01.546Z,60
2017-06-23T04:52:47.563Z,50
2017-06-23T04:53:47.284Z,35
2017-06-23T04:55:02.237Z,25
2017-06-23T04:55:47.338Z,30
2017-06-23T04:56:47.717Z,25
2017-06-23T04:57:47.687Z,25
2017-06-23T04:58:47.715Z,25
2017-06-23T04:59:47.749Z,25
2017-06-23T05:00:47.772Z,25
2017-06-23T05:02:02.410Z,25
2017-06-23T05:02:47.821Z,25
2017-06-23T05:03:47.846Z,25
2017-06-23T05:04:47.872Z,30
2017-06-23T05:05:47.897Z,30
2017-06-23T05:06:47.924Z,30
2017-06-23T05:07:47.956Z,30
2017-06-23T05:08:47.974Z,30
2017-06-23T05:09:48.000Z,35
2017-06-23T05:10:48.024Z,30
2017-06-23T05:11:48.049Z,25
2017-06-23T05:12:48.077Z,25
2017-06-23T05:13:48.116Z,20
2017-06-23T05:14:48.124Z,20
2017-06-23T05:16:02.822Z,20
2017-06-23T05:17:02.798Z,20
2017-06-23T05:17:48.255Z,15
2017-06-23T05:19:17.468Z,20
2017-06-23T05:19:48.258Z,20
2017-06-23T05:20:48.281Z,15
2017-06-23T05:22:02.926Z,20
2017-06-23T05:23:48.057Z,20
2017-06-23T05:25:03.001Z,25
2017-06-23T05:26:03.025Z,30
2017-06-23T05:26:48.435Z,25
2017-06-23T05:27:48.460Z,20
2017-06-23T05:28:48.485Z,15
2017-06-23T05:29:48.510Z,20
2017-06-23T05:30:48.587Z,20
2017-06-23T05:31:48.584Z,20
2017-06-23T05:35:17.875Z,15
2017-06-23T05:35:48.667Z,15
2017-06-23T05:37:17.925Z,15
2017-06-23T05:37:48.712Z,15
2017-06-23T05:39:03.356Z,15
2017-06-23T05:39:48.765Z,10
2017-06-23T05:40:48.804Z,10
2017-06-23T05:42:03.432Z,15
2017-06-23T05:42:48.842Z,15
2017-06-23T05:43:48.866Z,10
2017-06-23T05:44:48.891Z,15
2017-06-23T05:45:48.929Z,10
2017-06-23T05:47:03.562Z,15
2017-06-23T05:47:48.972Z,15
2017-06-23T05:48:48.690Z,15
2017-06-23T05:49:48.721Z,15
2017-06-23T05:50:48.741Z,10
2017-06-23T05:52:03.690Z,10
2017-06-23T05:53:03.712Z,10
2017-06-23T05:53:49.120Z,10
2017-06-23T05:55:03.766Z,15
2017-06-23T05:56:03.485Z,15
2017-06-23T05:56:48.896Z,10
2017-06-23T05:57:49.223Z,5
2017-06-23T05:58:48.946Z,10
2017-06-23T05:59:48.975Z,10
2017-06-23T06:00:49.299Z,10
2017-06-23T06:01:49.031Z,5
2017-06-23T06:02:49.049Z,10
2017-06-23T06:04:03.996Z,10
2017-06-23T06:04:49.098Z,10
2017-06-23T06:06:04.049Z,10
2017-06-23T06:06:49.146Z,10
2017-06-23T06:07:49.474Z,15
2017-06-23T06:09:18.736Z,20
2017-06-23T06:10:04.147Z,20
2017-06-23T06:11:49.576Z,35
2017-06-23T06:12:49.605Z,35
2017-06-23T06:13:49.627Z,40
2017-06-23T06:14:49.656Z,50
2017-06-23T06:15:49.680Z,55
2017-06-23T06:16:49.757Z,60
2017-06-23T06:17:49.729Z,60
2017-06-23T06:20:04.098Z,50
2017-06-23T06:20:49.803Z,50
2017-06-23T06:22:04.449Z,50
2017-06-23T06:22:49.554Z,50
2017-06-23T06:23:49.932Z,50
2017-06-23T06:24:49.914Z,45
2017-06-23T06:26:04.553Z,40
2017-06-23T06:26:50.019Z,40
2017-06-23T06:27:50.032Z,40
2017-06-23T06:28:49.755Z,45
2017-06-23T06:30:50.261Z,40
2017-06-23T06:31:49.477Z,45
2017-06-23T06:32:50.112Z,50
2017-06-23T06:33:50.137Z,45
2017-06-23T06:34:49.863Z,50
2017-06-23T06:35:50.186Z,50
2017-06-23T06:37:04.527Z,50
2017-06-23T06:38:19.475Z,50
2017-06-23T06:38:50.263Z,55
2017-06-23T06:39:50.037Z,55
2017-06-23T06:40:50.366Z,55
2017-06-23T06:41:50.339Z,55
2017-06-23T06:43:04.983Z,50
2017-06-23T06:44:05.007Z,50
2017-06-23T06:44:50.415Z,50
2017-06-23T06:45:50.442Z,50
2017-06-23T06:46:50.160Z,55
2017-06-23T06:47:50.517Z,55
2017-06-23T06:49:50.548Z,50
2017-06-23T06:50:50.671Z,45
2017-06-23T06:51:50.596Z,50
2017-06-23T06:53:05.237Z,50
2017-06-23T06:53:50.696Z,50
2017-06-23T06:55:05.292Z,50
2017-06-23T06:55:50.745Z,50
2017-06-23T06:56:50.723Z,50
2017-06-23T06:58:05.366Z,55
2017-06-23T06:58:50.777Z,55
2017-06-23T07:01:05.290Z,45
2017-06-23T07:01:50.261Z,35
2017-06-23T07:02:50.574Z,30
2017-06-23T07:03:50.906Z,30
2017-06-23T07:04:50.926Z,30
2017-06-23T07:05:50.952Z,25
2017-06-23T07:06:50.977Z,30
2017-06-23T07:07:51.030Z,35
2017-06-23T07:08:51.029Z,35
2017-06-23T07:09:51.115Z,35
2017-06-23T07:10:51.083Z,40
2017-06-23T07:11:50.499Z,40
2017-06-23T07:12:51.136Z,40
2017-06-23T07:14:05.776Z,40
2017-06-23T07:15:05.746Z,35
2017-06-23T07:15:51.206Z,35
2017-06-23T07:17:51.258Z,50
2017-06-23T07:18:51.282Z,55
2017-06-23T07:19:51.008Z,55
2017-06-23T07:20:51.032Z,50
2017-06-23T07:22:05.979Z,60
2017-06-23T07:23:06.006Z,65
2017-06-23T07:23:51.415Z,75
2017-06-23T07:24:51.438Z,90
2017-06-23T07:26:20.700Z,95
2017-06-23T07:26:51.491Z,95
2017-06-23T07:27:51.516Z,100
2017-06-23T07:29:06.159Z,110
2017-06-23T07:30:05.879Z,120
2017-06-23T07:30:51.594Z,115
2017-06-23T07:32:06.232Z,105
2017-06-23T07:32:51.340Z,95
2017-06-23T07:33:51.363Z,100
2017-06-23T07:34:51.392Z,100
2017-06-23T07:35:51.727Z,95
2017-06-23T07:36:51.792Z,85
2017-06-23T07:37:51.464Z,90
2017-06-23T07:38:51.795Z,95
2017-06-23T07:39:51.823Z,100
2017-06-23T07:40:51.239Z,110
2017-06-23T07:41:51.871Z,105
2017-06-23T07:42:50.987Z,90
2017-06-23T07:43:51.618Z,90
2017-06-23T07:44:51.341Z,65
2017-06-23T07:46:06.593Z,45
2017-06-23T07:46:51.747Z,40
2017-06-23T07:47:51.720Z,35
2017-06-23T07:48:52.051Z,35
2017-06-23T07:50:52.102Z,65
2017-06-23T07:51:52.126Z,80
2017-06-23T07:53:51.873Z,100
2017-06-23T07:54:52.204Z,110
2017-06-23T07:55:51.929Z,125
2017-06-23T07:56:52.257Z,165
2017-06-23T07:57:51.979Z,610
2017-06-23T07:59:06.929Z,745
2017-06-23T07:59:51.422Z,685
2017-06-23T08:01:06.779Z,400
2017-06-23T08:02:07.007Z,450
2017-06-23T08:02:52.414Z,430
2017-06-23T08:04:52.169Z,280
2017-06-23T08:05:52.492Z,500
2017-06-23T08:06:52.219Z,295
2017-06-23T08:08:07.168Z,195
2017-06-23T08:08:52.579Z,215
2017-06-23T08:09:52.624Z,190
2017-06-23T08:10:52.678Z,165
2017-06-23T08:11:52.657Z,160
2017-06-23T08:12:52.733Z,165
2017-06-23T08:14:07.378Z,220
2017-06-23T08:14:52.755Z,250
2017-06-23T08:15:52.764Z,590
2017-06-23T08:17:07.409Z,305
2017-06-23T08:17:52.866Z,665
2017-06-23T08:19:07.460Z,255
2017-06-23T08:19:52.583Z,250
2017-06-23T08:20:52.898Z,645
2017-06-23T08:22:52.651Z,620
2017-06-23T08:23:52.981Z,260
2017-06-23T08:24:53.011Z,280
2017-06-23T08:25:53.037Z,330
2017-06-23T08:26:53.084Z,475
2017-06-23T08:28:07.709Z,585
2017-06-23T08:29:07.737Z,315
2017-06-23T08:30:22.082Z,460
2017-06-23T08:30:53.178Z,550
2017-06-23T08:32:07.826Z,420
2017-06-23T08:33:07.851Z,495
2017-06-23T08:33:52.957Z,560
2017-06-23T08:34:52.684Z,330
2017-06-23T08:35:53.321Z,400
2017-06-23T08:36:53.503Z,545
2017-06-23T08:37:53.383Z,540
2017-06-23T08:38:53.414Z,525
2017-06-23T08:40:53.527Z,515
2017-06-23T08:42:08.121Z,530
2017-06-23T08:42:53.227Z,500
2017-06-23T08:43:53.568Z,355
2017-06-23T08:45:22.833Z,295
2017-06-23T08:45:53.623Z,275
2017-06-23T08:46:53.354Z,255
2017-06-23T08:47:53.684Z,250
2017-06-23T08:49:08.338Z,225
2017-06-23T08:49:53.746Z,215
2017-06-23T08:50:53.776Z,215
2017-06-23T08:51:53.811Z,210
2017-06-23T08:52:53.834Z,205
2017-06-23T08:53:53.560Z,215
2017-06-23T08:54:53.900Z,235
2017-06-23T08:56:08.247Z,250
2017-06-23T08:56:53.980Z,260
2017-06-23T08:57:53.985Z,275
2017-06-23T08:58:54.066Z,290
2017-06-23T08:59:54.043Z,315
2017-06-23T09:00:54.276Z,325
2017-06-23T09:02:08.722Z,340
2017-06-23T09:02:54.133Z,320
2017-06-23T09:03:53.553Z,295
2017-06-23T09:05:08.506Z,275
2017-06-23T09:05:54.230Z,270
2017-06-23T09:06:54.246Z,270
2017-06-23T09:07:54.278Z,290
2017-06-23T09:08:54.309Z,280
2017-06-23T09:10:54.064Z,275
2017-06-23T09:11:53.792Z,295
2017-06-23T09:12:54.422Z,300
2017-06-23T09:13:54.457Z,290
2017-06-23T09:15:09.103Z,295
2017-06-23T09:16:09.130Z,290
2017-06-23T09:16:54.540Z,290
2017-06-23T09:17:54.571Z,270
2017-06-23T09:18:54.297Z,275
2017-06-23T09:20:09.249Z,270
2017-06-23T09:21:09.282Z,270
2017-06-23T09:21:54.689Z,265
2017-06-23T09:23:54.819Z,245
2017-06-23T09:24:54.770Z,245
2017-06-23T09:25:54.805Z,240
2017-06-23T09:26:54.831Z,225
2017-06-23T09:28:09.530Z,230
2017-06-23T09:28:54.913Z,235
2017-06-23T09:29:54.613Z,240
2017-06-23T09:31:09.564Z,245
2017-06-23T09:31:54.975Z,240
2017-06-23T09:32:55.059Z,230
2017-06-23T09:33:54.736Z,230
2017-06-23T09:34:54.455Z,230
2017-06-23T09:37:09.738Z,225
2017-06-23T09:37:54.844Z,225
2017-06-23T09:38:55.178Z,225
2017-06-23T09:39:54.952Z,225
2017-06-23T09:41:54.956Z,235
2017-06-23T09:42:55.290Z,240
2017-06-23T09:43:55.324Z,245
2017-06-23T09:44:55.350Z,260
2017-06-23T09:45:55.382Z,275
2017-06-23T09:47:24.644Z,290
2017-06-23T09:48:24.368Z,295
2017-06-23T09:48:55.465Z,285
2017-06-23T09:50:10.114Z,285
2017-06-23T09:50:55.524Z,270
2017-06-23T09:51:55.550Z,255
2017-06-23T09:53:10.197Z,250
2017-06-23T09:53:55.615Z,245
2017-06-23T09:55:55.363Z,210
2017-06-23T09:56:55.703Z,185
2017-06-23T09:58:10.343Z,150
2017-06-23T09:58:55.753Z,145
2017-06-23T09:59:55.780Z,155
2017-06-23T10:00:55.962Z,175
2017-06-23T10:01:55.535Z,200
2017-06-23T10:03:10.185Z,200
2017-06-23T10:03:55.901Z,200
2017-06-23T10:04:55.619Z,210
2017-06-23T10:05:55.952Z,215
2017-06-23T10:07:10.600Z,210
2017-06-23T10:08:10.626Z,195
2017-06-23T10:08:56.039Z,195
2017-06-23T10:09:55.763Z,195
2017-06-23T10:10:56.098Z,180
2017-06-23T10:11:56.122Z,185
2017-06-23T10:13:56.208Z,210
2017-06-23T10:16:56.269Z,120
2017-06-23T10:18:10.914Z,125
2017-06-23T10:18:56.325Z,135
2017-06-23T10:20:25.590Z,130
2017-06-23T10:21:25.616Z,135
2017-06-23T10:21:56.115Z,145
2017-06-23T10:22:56.146Z,140
2017-06-23T10:24:56.193Z,130
2017-06-23T10:25:56.551Z,140
2017-06-23T10:26:56.547Z,150
2017-06-23T10:27:56.629Z,160
2017-06-23T10:28:56.605Z,160
2017-06-23T10:29:56.333Z,160
2017-06-23T10:30:56.662Z,170
2017-06-23T10:31:56.691Z,175
2017-06-23T10:32:56.717Z,165
2017-06-23T10:33:56.752Z,135
2017-06-23T10:34:56.773Z,130
2017-06-23T10:36:26.041Z,160
2017-06-23T10:36:56.881Z,155
2017-06-23T10:37:56.864Z,145
2017-06-23T10:38:56.888Z,140
2017-06-23T10:40:56.946Z,130
2017-06-23T10:41:56.669Z,135
2017-06-23T10:43:57.036Z,140
2017-06-23T10:44:57.056Z,130
2017-06-23T10:45:56.780Z,120
2017-06-23T10:46:56.810Z,115
2017-06-23T10:47:56.839Z,105
2017-06-23T10:48:56.864Z,105
2017-06-23T10:50:11.814Z,100
2017-06-23T10:51:11.847Z,100
2017-06-23T10:51:56.955Z,100
2017-06-23T10:52:56.976Z,105
2017-06-23T10:54:26.543Z,110
2017-06-23T10:54:57.339Z,105
2017-06-23T10:56:11.981Z,105
2017-06-23T10:57:11.706Z,110
2017-06-23T10:58:12.037Z,110
2017-06-23T10:58:57.448Z,115
2017-06-23T10:59:57.522Z,115
2017-06-23T11:00:57.504Z,120
2017-06-23T11:01:57.537Z,125
2017-06-23T11:02:57.565Z,130
2017-06-23T11:03:57.590Z,120
2017-06-23T11:04:57.321Z,110
2017-06-23T11:06:12.011Z,110
2017-06-23T11:07:57.704Z,100
2017-06-23T11:09:57.452Z,100
2017-06-23T11:11:12.105Z,100
2017-06-23T11:11:57.516Z,100
2017-06-23T11:13:57.871Z,100
2017-06-23T11:14:57.896Z,95
2017-06-23T11:15:57.955Z,95
2017-06-23T11:18:12.344Z,100
2017-06-23T11:19:12.321Z,100
2017-06-23T11:20:12.349Z,110
2017-06-23T11:21:12.681Z,115
2017-06-23T11:21:58.145Z,120
2017-06-23T11:23:12.767Z,125
2017-06-23T11:24:57.570Z,130
2017-06-23T11:25:58.202Z,130
2017-06-23T11:26:57.925Z,120
2017-06-23T11:28:58.287Z,110
2017-06-23T11:29:58.007Z,115
2017-06-23T11:30:58.340Z,120
2017-06-23T11:32:12.987Z,130
2017-06-23T11:32:58.395Z,140
2017-06-23T11:33:58.427Z,145
2017-06-23T11:35:12.764Z,155
2017-06-23T11:35:58.529Z,160
2017-06-23T11:37:13.129Z,160
2017-06-23T11:38:13.153Z,155
2017-06-23T11:38:58.257Z,155
2017-06-23T11:39:58.594Z,150
2017-06-23T11:40:58.615Z,145
2017-06-23T11:41:58.643Z,135
2017-06-23T11:43:13.342Z,135
2017-06-23T11:43:58.698Z,130
2017-06-23T11:44:58.732Z,135
2017-06-23T11:46:58.787Z,145
2017-06-23T11:47:58.807Z,145
2017-06-23T11:48:58.841Z,150
2017-06-23T11:49:58.867Z,155
2017-06-23T11:51:13.511Z,160
2017-06-23T11:51:58.934Z,170
2017-06-23T11:52:58.947Z,165
2017-06-23T11:53:58.673Z,170
2017-06-23T11:54:59.006Z,175
2017-06-23T11:55:59.036Z,180
2017-06-23T11:57:58.783Z,185
2017-06-23T11:59:13.435Z,185
2017-06-23T11:59:58.845Z,185
2017-06-23T12:00:59.175Z,180
2017-06-23T12:02:59.225Z,190
2017-06-23T12:03:59.256Z,190
2017-06-23T12:04:59.286Z,230
2017-06-23T12:06:59.341Z,200
2017-06-23T12:07:59.374Z,205
2017-06-23T12:09:13.717Z,190
2017-06-23T12:09:59.425Z,190
2017-06-23T12:11:14.074Z,185
2017-06-23T12:11:59.482Z,180
2017-06-23T12:13:58.936Z,150
2017-06-23T12:15:14.191Z,130
2017-06-23T12:15:59.295Z,115
2017-06-23T12:16:59.626Z,100
2017-06-23T12:17:59.654Z,95
2017-06-23T12:18:59.378Z,90
2017-06-23T12:19:59.711Z,85
2017-06-23T12:20:59.437Z,80
2017-06-23T12:21:59.772Z,75
2017-06-23T12:23:14.414Z,70
2017-06-23T12:24:14.493Z,65
2017-06-23T12:25:14.467Z,70
2017-06-23T12:26:14.498Z,70
2017-06-23T12:26:59.604Z,70
2017-06-23T12:27:59.639Z,70
2017-06-23T12:31:14.373Z,60
2017-06-23T12:31:59.743Z,60
2017-06-23T12:33:00.097Z,55
2017-06-23T12:34:59.829Z,60
2017-06-23T12:36:00.160Z,60
2017-06-23T12:36:59.880Z,60
2017-06-23T12:37:59.910Z,65
2017-06-23T12:39:00.240Z,70
2017-06-23T12:40:00.320Z,65
2017-06-23T12:41:14.917Z,65
2017-06-23T12:42:14.639Z,65
2017-06-23T12:43:14.665Z,65
2017-06-23T12:44:14.998Z,70
2017-06-23T12:45:00.410Z,75
2017-06-23T12:46:15.056Z,90
2017-06-23T12:47:00.158Z,95
2017-06-23T12:48:00.488Z,105
2017-06-23T12:49:00.518Z,115
2017-06-23T12:50:00.292Z,130
2017-06-23T12:51:00.575Z,145
2017-06-23T12:52:00.598Z,160
2017-06-23T12:53:15.302Z,180
2017-06-23T12:54:00.353Z,190
2017-06-23T12:55:00.681Z,195
2017-06-23T12:56:00.713Z,195
2017-06-23T12:57:00.744Z,190
2017-06-23T12:58:00.463Z,180
2017-06-23T12:59:15.411Z,190
2017-06-23T13:00:00.823Z,185
2017-06-23T13:01:00.857Z,195
2017-06-23T13:05:00.962Z,200
2017-06-23T13:06:00.987Z,210
2017-06-23T13:07:01.069Z,200
2017-06-23T13:08:00.794Z,200
2017-06-23T13:09:01.077Z,200
2017-06-23T13:10:01.102Z,205
2017-06-23T13:11:01.132Z,215
2017-06-23T13:12:01.160Z,215
2017-06-23T13:13:01.188Z,230
2017-06-23T13:14:00.908Z,250
2017-06-23T13:15:01.241Z,250
2017-06-23T13:16:00.969Z,245
2017-06-23T13:17:01.295Z,245
2017-06-23T13:18:15.949Z,235
2017-06-23T13:19:01.356Z,235
2017-06-23T13:20:01.077Z,235
2017-06-23T13:21:01.412Z,230
2017-06-23T13:22:01.446Z,235
2017-06-23T13:23:01.475Z,240
2017-06-23T13:24:01.502Z,235
2017-06-23T13:25:01.524Z,260
2017-06-23T13:26:16.174Z,230
2017-06-23T13:27:01.586Z,220
2017-06-23T13:28:16.236Z,205
2017-06-23T13:29:16.257Z,195
2017-06-23T13:31:01.399Z,185
2017-06-23T13:32:01.728Z,180
2017-06-23T13:33:01.758Z,180
2017-06-23T13:34:16.401Z,180
2017-06-23T13:35:01.812Z,185
2017-06-23T13:36:01.591Z,205
2017-06-23T13:37:01.874Z,190
2017-06-23T13:38:01.294Z,180
2017-06-23T13:39:01.929Z,170
2017-06-23T13:40:16.578Z,160
2017-06-23T13:41:01.988Z,160
2017-06-23T13:42:02.020Z,150
2017-06-23T13:43:02.048Z,145
2017-06-23T13:44:02.074Z,145
2017-06-23T13:45:16.721Z,135
2017-06-23T13:46:02.131Z,135
2017-06-23T13:47:02.160Z,130
2017-06-23T13:48:02.185Z,130
2017-06-23T13:49:02.215Z,135
2017-06-23T13:51:02.571Z,140
2017-06-23T13:52:02.297Z,145
2017-06-23T13:53:02.328Z,145
2017-06-23T13:54:02.358Z,150
2017-06-23T13:55:02.384Z,150
2017-06-23T13:56:16.728Z,145
2017-06-23T13:57:02.187Z,145
2017-06-23T13:58:02.485Z,150
2017-06-23T13:59:02.503Z,160
2017-06-23T14:00:02.227Z,165
2017-06-23T14:01:02.256Z,170
2017-06-23T14:02:02.582Z,180
2017-06-23T14:03:02.610Z,190
2017-06-23T14:04:02.673Z,195
2017-06-23T14:05:02.380Z,195
2017-06-23T14:07:02.729Z,185
2017-06-23T14:08:02.757Z,175
2017-06-23T14:09:02.802Z,165
2017-06-23T14:10:02.810Z,155
2017-06-23T14:11:02.840Z,150
2017-06-23T14:12:02.866Z,145
2017-06-23T14:13:17.518Z,135
2017-06-23T14:14:17.234Z,125
2017-06-23T14:15:17.570Z,115
2017-06-23T14:16:02.677Z,110
2017-06-23T14:17:03.061Z,105
2017-06-23T14:18:03.038Z,95
2017-06-23T14:19:02.762Z,95
2017-06-23T14:20:17.710Z,90
2017-06-23T14:21:32.065Z,85
2017-06-23T14:22:03.172Z,85
2017-06-23T14:23:03.203Z,80
2017-06-23T14:24:03.212Z,80
2017-06-23T14:25:03.238Z,80
2017-06-23T14:26:03.261Z,85
2017-06-23T14:27:03.292Z,85
2017-06-23T14:28:03.325Z,85
2017-06-23T14:29:03.355Z,85
2017-06-23T14:30:03.071Z,85
2017-06-23T14:31:03.456Z,80
2017-06-23T14:32:03.127Z,75
2017-06-23T14:33:18.079Z,65
2017-06-23T14:34:03.487Z,60
2017-06-23T14:35:03.515Z,60
2017-06-23T14:36:03.244Z,55
2017-06-23T14:37:03.573Z,55
2017-06-23T14:38:03.651Z,55
2017-06-23T14:39:03.627Z,50
2017-06-23T14:40:03.346Z,50
2017-06-23T14:41:03.378Z,50
2017-06-23T14:42:18.027Z,50
2017-06-23T14:43:03.131Z,55
2017-06-23T14:44:03.462Z,60
2017-06-23T14:45:03.791Z,65
2017-06-23T14:46:18.436Z,75
2017-06-23T14:47:03.844Z,85
2017-06-23T14:48:03.875Z,100
2017-06-23T14:49:03.902Z,130
2017-06-23T14:50:03.928Z,155
2017-06-23T14:51:03.958Z,210
2017-06-23T14:52:03.376Z,225
2017-06-23T14:53:18.628Z,230
2017-06-23T14:54:03.735Z,245
2017-06-23T14:55:03.771Z,255
2017-06-23T14:56:04.094Z,260
2017-06-23T14:57:18.440Z,265
2017-06-23T14:58:03.545Z,240
2017-06-23T14:59:04.178Z,220
2017-06-23T15:00:03.905Z,215
2017-06-23T15:01:03.927Z,210
2017-06-23T15:02:04.261Z,210
2017-06-23T15:03:18.906Z,205
2017-06-23T15:04:04.329Z,195
2017-06-23T15:05:04.349Z,175
2017-06-23T15:06:04.373Z,155
2017-06-23T15:07:04.425Z,135
2017-06-23T15:08:19.046Z,115
2017-06-23T15:09:18.773Z,110
2017-06-23T15:10:04.183Z,110
2017-06-23T15:11:04.565Z,120
2017-06-23T15:12:04.546Z,125
2017-06-23T15:13:04.266Z,130
2017-06-23T15:14:18.919Z,135
2017-06-23T15:15:04.326Z,140
2017-06-23T15:16:04.353Z,145
2017-06-23T15:17:04.691Z,160
2017-06-23T15:18:19.328Z,160